Time;durP1;ratioP1;P1;durP2;ratioP2;P2;SDS_P1;SDS_P2;PMS_P1;PMS_P2;Temp;Humidity;BMP_temperature;BMP_pressure;BME280_temperature;BME280_humidity;BME280_pressure;Samples;Min_cycle;Max_cycle;Signal;HPM_P1;HPM_P2
2023/04/10 00:01:35;;;;;;;32.22;22.98;;;8.50;99.90;;;;;;4975054;28;20129;-70
2023/04/10 00:04:02;;;;;;;36.33;24.10;;;8.50;99.90;;;;;;4974985;28;20393;-71
2023/04/10 00:06:27;;;;;;;34.75;23.38;;;8.50;99.90;;;;;;4975084;28;20051;-70
2023/04/10 00:08:53;;;;;;;35.47;23.38;;;8.50;99.90;;;;;;4974871;28;20121;-71
2023/04/10 00:11:19;;;;;;;32.55;23.90;;;8.50;99.90;;;;;;4974841;28;20135;-71
2023/04/10 00:13:45;;;;;;;32.38;22.38;;;8.40;99.90;;;;;;4957642;28;20130;-71
2023/04/10 00:16:10;;;;;;;32.78;23.73;;;8.40;99.90;;;;;;4941860;28;20042;-71
2023/04/10 00:18:36;;;;;;;35.65;23.63;;;8.40;99.90;;;;;;4974869;28;20515;-71
2023/04/10 00:21:02;;;;;;;34.72;23.58;;;8.40;99.90;;;;;;4974793;28;20053;-71
2023/04/10 00:23:30;;;;;;;31.92;22.60;;;8.50;99.90;;;;;;4957689;28;20055;-71
2023/04/10 00:25:56;;;;;;;32.92;24.00;;;8.30;99.90;;;;;;4957713;28;20400;-71
2023/04/10 00:28:22;;;;;;;31.95;23.55;;;8.50;99.90;;;;;;4975116;28;20039;-71
2023/04/10 00:30:47;;;;;;;34.38;24.10;;;8.50;99.90;;;;;;4974690;28;20050;-71
2023/04/10 00:33:13;;;;;;;34.63;24.38;;;8.30;99.90;;;;;;4957439;28;20051;-71
2023/04/10 00:35:39;;;;;;;35.10;24.02;;;8.40;99.90;;;;;;4975407;28;20050;-71
2023/04/10 00:38:05;;;;;;;37.45;24.40;;;8.30;99.90;;;;;;4974646;28;20457;-71
2023/04/10 00:40:30;;;;;;;35.60;24.35;;;8.30;99.90;;;;;;4974815;28;20604;-71
2023/04/10 00:42:56;;;;;;;35.38;25.00;;;8.50;99.90;;;;;;4957850;28;20126;-71
2023/04/10 00:45:22;;;;;;;33.63;23.13;;;8.40;99.90;;;;;;4974534;28;20053;-71
2023/04/10 00:47:48;;;;;;;36.55;24.73;;;8.30;99.90;;;;;;4957681;28;20388;-71
2023/04/10 00:50:14;;;;;;;33.00;24.67;;;8.30;99.90;;;;;;4957281;28;20079;-71
2023/04/10 00:52:40;;;;;;;35.88;25.80;;;8.20;99.90;;;;;;4957520;28;20061;-71
2023/04/10 00:55:07;;;;;;;35.92;24.75;;;8.20;99.90;;;;;;4974481;28;20084;-71
2023/04/10 00:57:32;;;;;;;34.17;24.77;;;8.20;99.90;;;;;;4974991;28;20051;-71
2023/04/10 00:59:59;;;;;;;33.88;25.00;;;8.20;99.90;;;;;;4974792;28;20071;-71
2023/04/10 01:02:25;;;;;;;33.75;24.13;;;8.10;99.90;;;;;;4974493;28;20055;-70
2023/04/10 01:04:51;;;;;;;35.45;24.80;;;8.10;99.90;;;;;;4974436;28;20090;-71
2023/04/10 01:07:23;;;;;;;32.47;24.17;;;8.10;99.90;;;;;;4974380;28;20042;-71
2023/04/10 01:09:57;;;;;;;35.95;24.92;;;8.10;99.90;;;;;;4975230;28;20086;-71
2023/04/10 01:12:47;;;;;;;36.35;25.75;;;8.10;99.90;;;;;;4975291;28;20381;-71
2023/04/10 01:15:17;;;;;;;34.25;23.42;;;8.20;99.90;;;;;;4974565;28;20050;-71
2023/04/10 01:18:08;;;;;;;34.33;24.63;;;8.00;99.90;;;;;;4974469;28;20474;-71
2023/04/10 01:20:40;;;;;;;35.03;24.63;;;8.00;99.90;;;;;;4974655;28;20053;-71
2023/04/10 01:23:50;;;;;;;34.95;25.38;;;8.00;99.90;;;;;;4974814;28;20058;-70
2023/04/10 01:26:35;;;;;;;35.75;24.83;;;8.00;99.90;;;;;;4974621;28;20078;-71
2023/04/10 01:29:11;;;;;;;35.30;24.98;;;8.10;99.90;;;;;;4974886;28;20050;-70
2023/04/10 01:32:08;;;;;;;36.35;25.85;;;8.00;99.90;;;;;;4974944;28;20057;-71
2023/04/10 01:34:59;;;;;;;37.60;25.40;;;7.90;99.90;;;;;;4974198;28;20125;-71
2023/04/10 01:37:30;;;;;;;35.38;25.40;;;7.90;99.90;;;;;;4974942;28;20433;-71
2023/04/10 01:40:02;;;;;;;35.30;25.45;;;8.00;99.90;;;;;;4977253;28;20178;-71
2023/04/10 01:42:31;;;;;;;34.83;25.60;;;7.90;99.90;;;;;;4977452;28;20054;-71
2023/04/10 01:44:59;;;;;;;36.60;25.60;;;7.80;99.90;;;;;;4977494;28;20097;-71
2023/04/10 01:47:26;;;;;;;34.13;24.73;;;7.90;99.90;;;;;;4978268;28;20233;-70
2023/04/10 01:49:54;;;;;;;39.60;26.50;;;7.80;99.90;;;;;;4977848;28;20372;-71
2023/04/10 01:52:21;;;;;;;34.05;24.60;;;7.80;99.90;;;;;;4977403;28;20089;-70
2023/04/10 01:54:47;;;;;;;34.58;24.55;;;7.80;99.90;;;;;;4977355;28;20047;-71
2023/04/10 01:57:15;;;;;;;34.42;24.52;;;7.80;99.90;;;;;;4977256;28;20109;-71
2023/04/10 01:59:41;;;;;;;33.10;23.52;;;7.70;99.90;;;;;;4977273;28;20377;-71
2023/04/10 02:02:10;;;;;;;37.67;26.45;;;7.80;99.90;;;;;;4960134;28;20055;-71
2023/04/10 02:04:36;;;;;;;35.05;24.50;;;7.80;99.90;;;;;;4977113;28;20051;-71
2023/04/10 02:07:12;;;;;;;33.95;24.25;;;7.70;99.90;;;;;;4959804;28;20057;-71
2023/04/10 02:10:05;;;;;;;35.92;24.77;;;7.70;99.90;;;;;;4977022;28;20054;-71
2023/04/10 02:12:38;;;;;;;34.42;24.13;;;7.80;99.90;;;;;;4977077;28;20050;-70
2023/04/10 02:15:07;;;;;;;37.22;24.48;;;7.70;99.90;;;;;;4959811;28;20062;-71
2023/04/10 02:17:35;;;;;;;35.25;24.48;;;7.70;99.90;;;;;;4976902;28;20126;-71
2023/04/10 02:20:02;;;;;;;35.75;24.83;;;7.70;99.90;;;;;;4976876;28;20097;-71
2023/04/10 02:22:28;;;;;;;33.75;23.98;;;7.70;99.90;;;;;;4959772;28;20063;-70
2023/04/10 02:24:55;;;;;;;35.90;24.05;;;7.80;99.90;;;;;;4976775;28;20042;-71
2023/04/10 02:27:32;;;;;;;34.50;24.38;;;7.60;99.90;;;;;;4976953;28;20488;-72
2023/04/10 02:29:58;;;;;;;35.40;24.02;;;7.60;99.90;;;;;;4959365;28;20054;-71
2023/04/10 02:32:24;;;;;;;31.25;22.85;;;7.80;99.90;;;;;;4976656;28;20484;-71
2023/04/10 02:34:49;;;;;;;35.38;23.83;;;7.60;99.90;;;;;;4959539;28;20046;-71
2023/04/10 02:37:15;;;;;;;33.72;24.02;;;7.60;99.90;;;;;;4976571;28;20082;-71
2023/04/10 02:39:41;;;;;;;32.67;22.73;;;7.60;99.90;;;;;;4976521;28;20098;-71
2023/04/10 02:42:07;;;;;;;35.90;23.65;;;7.60;99.90;;;;;;4959113;28;20054;-71
2023/04/10 02:44:32;;;;;;;32.58;23.40;;;7.60;99.90;;;;;;4976400;28;20134;-71
2023/04/10 02:46:58;;;;;;;33.05;24.13;;;7.50;99.90;;;;;;4943127;28;20050;-71
2023/04/10 02:49:24;;;;;;;32.65;24.13;;;7.80;99.90;;;;;;4976466;28;20097;-71
2023/04/10 02:51:50;;;;;;;35.15;23.30;;;7.50;99.90;;;;;;4976276;28;20043;-71
2023/04/10 02:54:15;;;;;;;33.78;24.05;;;7.60;99.90;;;;;;4976252;28;20052;-71
2023/04/10 02:56:41;;;;;;;32.95;23.73;;;7.60;99.90;;;;;;4976744;28;20130;-71
2023/04/10 02:59:07;;;;;;;32.10;23.00;;;7.50;99.90;;;;;;4959300;28;20105;-71
2023/04/10 03:01:33;;;;;;;35.30;24.00;;;7.70;99.90;;;;;;4976081;28;20046;-71
2023/04/10 03:03:59;;;;;;;35.53;24.23;;;7.50;99.90;;;;;;4976031;28;20058;-71
2023/04/10 03:06:27;;;;;;;34.88;23.30;;;7.60;99.90;;;;;;4976520;28;20046;-71
2023/04/10 03:08:53;;;;;;;35.63;24.17;;;7.30;99.90;;;;;;4975910;28;20129;-71
2023/04/10 03:11:18;;;;;;;36.03;23.98;;;7.50;99.90;;;;;;4975808;28;20082;-71
2023/04/10 03:13:44;;;;;;;34.45;23.77;;;7.50;99.90;;;;;;4976712;28;20108;-71
2023/04/10 03:16:10;;;;;;;33.78;25.77;;;7.30;99.90;;;;;;4975830;28;20047;-71
2023/04/10 03:18:35;;;;;;;34.38;23.27;;;7.60;99.90;;;;;;4975502;28;20038;-71
2023/04/10 03:21:01;;;;;;;35.28;23.92;;;7.60;99.90;;;;;;4958715;28;20058;-71
2023/04/10 03:23:27;;;;;;;35.08;23.77;;;7.40;99.90;;;;;;4959262;28;20061;-71
2023/04/10 03:25:53;;;;;;;36.58;23.90;;;7.30;99.90;;;;;;4975887;28;20054;-71
2023/04/10 03:28:20;;;;;;;34.08;23.92;;;7.20;99.90;;;;;;4975587;28;20051;-71
2023/04/10 03:30:45;;;;;;;35.33;24.17;;;7.30;99.90;;;;;;4975599;28;20046;-71
2023/04/10 03:33:11;;;;;;;31.65;23.17;;;7.40;99.90;;;;;;4975518;28;20560;-71
2023/04/10 03:35:37;;;;;;;32.28;23.15;;;7.30;99.90;;;;;;4975444;28;20058;-71
2023/04/10 03:38:03;;;;;;;34.10;22.85;;;7.20;99.90;;;;;;4975479;28;20409;-71
2023/04/10 03:40:28;;;;;;;33.13;23.23;;;7.30;99.90;;;;;;4958122;28;20106;-71
2023/04/10 03:42:54;;;;;;;32.75;22.58;;;7.40;99.90;;;;;;4975341;28;20046;-71
2023/04/10 03:45:20;;;;;;;34.40;22.95;;;7.20;99.90;;;;;;4975291;28;20512;-71
2023/04/10 03:47:45;;;;;;;35.65;24.17;;;7.50;99.90;;;;;;4976153;28;20048;-71
2023/04/10 03:50:11;;;;;;;34.60;23.73;;;7.40;99.90;;;;;;4975749;28;20535;-71
2023/04/10 03:52:39;;;;;;;36.50;23.33;;;7.30;99.90;;;;;;4975310;28;20046;-71
2023/04/10 03:55:05;;;;;;;35.60;24.13;;;7.40;99.90;;;;;;4975491;28;20043;-71
2023/04/10 03:57:31;;;;;;;34.42;23.70;;;7.20;99.90;;;;;;4975158;28;20047;-71
2023/04/10 03:59:56;;;;;;;35.92;23.45;;;7.10;99.90;;;;;;4975642;28;20062;-71
2023/04/10 04:02:22;;;;;;;35.72;24.77;;;7.30;99.90;;;;;;4975285;28;20137;-71
2023/04/10 04:04:48;;;;;;;35.83;22.85;;;7.20;99.90;;;;;;4975031;28;20138;-71
2023/04/10 04:07:14;;;;;;;32.70;23.00;;;7.10;99.90;;;;;;4975796;28;20051;-71
2023/04/10 04:09:40;;;;;;;35.15;23.92;;;7.30;99.90;;;;;;4974879;28;20038;-71
2023/04/10 04:12:06;;;;;;;32.75;22.92;;;7.70;99.90;;;;;;4957830;28;20365;-71
2023/04/10 04:14:32;;;;;;;32.55;22.67;;;7.50;99.90;;;;;;4974886;28;20050;-71
2023/04/10 04:16:57;;;;;;;35.15;23.83;;;7.20;99.90;;;;;;4974842;28;20053;-71
2023/04/10 04:19:24;;;;;;;31.40;22.67;;;7.10;99.90;;;;;;4975124;28;20039;-71
2023/04/10 04:21:49;;;;;;;34.95;22.95;;;7.10;99.90;;;;;;4958489;28;20125;-71
2023/04/10 04:24:15;;;;;;;34.47;23.70;;;7.20;99.90;;;;;;4975277;28;20150;-71
2023/04/10 04:26:41;;;;;;;34.45;23.05;;;7.40;99.90;;;;;;4975340;28;20385;-71
2023/04/10 04:29:06;;;;;;;33.53;22.73;;;7.20;99.90;;;;;;4974611;28;20038;-70
2023/04/10 04:31:32;;;;;;;36.00;24.33;;;7.40;99.90;;;;;;4974713;28;20050;-70
2023/04/10 04:33:59;;;;;;;32.25;22.35;;;7.30;99.90;;;;;;4974647;28;20050;-71
2023/04/10 04:36:25;;;;;;;34.10;23.17;;;7.20;99.90;;;;;;4974943;28;20049;-71
2023/04/10 04:38:50;;;;;;;35.47;23.02;;;7.40;99.90;;;;;;4974622;28;20054;-71
2023/04/10 04:41:16;;;;;;;31.42;22.25;;;7.50;99.90;;;;;;4974535;28;20047;-71
2023/04/10 04:43:42;;;;;;;34.25;22.38;;;7.40;99.90;;;;;;4975135;28;20073;-71
2023/04/10 04:46:07;;;;;;;36.65;23.85;;;7.50;99.90;;;;;;4974586;28;20054;-71
2023/04/10 04:48:34;;;;;;;33.33;23.05;;;7.30;99.90;;;;;;4974218;28;20086;-71
2023/04/10 04:51:00;;;;;;;34.00;23.73;;;7.20;99.90;;;;;;4975158;28;20050;-71
2023/04/10 04:53:26;;;;;;;32.67;22.75;;;7.30;99.90;;;;;;4974559;28;20415;-71
2023/04/10 04:55:51;;;;;;;33.03;22.70;;;7.50;99.90;;;;;;4957418;28;20049;-71
2023/04/10 04:58:17;;;;;;;33.97;23.67;;;7.40;99.90;;;;;;4974311;28;20063;-71
2023/04/10 05:00:43;;;;;;;32.63;23.88;;;7.60;99.90;;;;;;4941226;28;20046;-71
2023/04/10 05:03:10;;;;;;;33.15;22.77;;;7.70;99.90;;;;;;4957260;28;20043;-71
2023/04/10 05:05:35;;;;;;;30.60;22.75;;;7.60;99.90;;;;;;4974875;28;20374;-70
2023/04/10 05:08:01;;;;;;;34.00;23.85;;;7.40;99.90;;;;;;4974246;28;20047;-70
2023/04/10 05:10:27;;;;;;;33.45;23.90;;;7.50;99.90;;;;;;4957305;28;20141;-71
2023/04/10 05:12:52;;;;;;;36.70;23.58;;;7.50;99.90;;;;;;4974619;28;20046;-71
2023/04/10 05:15:18;;;;;;;33.33;23.83;;;7.70;99.90;;;;;;4960760;28;20504;-71
2023/04/10 05:17:44;;;;;;;35.63;23.90;;;7.70;99.90;;;;;;4978505;28;20046;-71
2023/04/10 05:20:10;;;;;;;34.15;23.88;;;7.40;99.90;;;;;;4977893;28;20038;-71
2023/04/10 05:22:36;;;;;;;33.95;22.40;;;7.50;99.90;;;;;;4945743;28;20416;-71
2023/04/10 05:25:01;;;;;;;33.30;22.63;;;7.50;99.90;;;;;;4977936;28;20054;-71
2023/04/10 05:27:27;;;;;;;34.55;22.80;;;7.50;99.90;;;;;;4977832;28;20374;-71
2023/04/10 05:29:53;;;;;;;35.13;23.45;;;7.60;99.90;;;;;;4977738;28;20130;-71
2023/04/10 05:32:18;;;;;;;33.25;23.20;;;7.50;99.90;;;;;;4960610;28;20046;-72
2023/04/10 05:34:44;;;;;;;31.33;23.00;;;7.70;99.90;;;;;;4977661;28;20050;-71
2023/04/10 05:37:11;;;;;;;31.75;22.17;;;7.50;99.90;;;;;;4977625;28;20057;-71
2023/04/10 05:39:37;;;;;;;32.67;22.50;;;7.70;99.90;;;;;;4945091;28;20059;-71
2023/04/10 05:42:03;;;;;;;33.45;23.60;;;7.50;99.90;;;;;;4977466;28;20058;-71
2023/04/10 05:44:30;;;;;;;32.90;23.60;;;7.80;99.90;;;;;;4978146;28;20042;-70
2023/04/10 05:46:55;;;;;;;33.20;23.05;;;7.60;99.90;;;;;;4977513;28;20054;-71
2023/04/10 05:49:21;;;;;;;33.17;23.30;;;7.70;99.90;;;;;;4977422;28;20057;-71
2023/04/10 05:51:49;;;;;;;31.92;22.88;;;7.70;99.90;;;;;;4978168;28;20050;-71
2023/04/10 05:54:18;;;;;;;34.95;23.42;;;7.70;99.90;;;;;;4977053;28;20497;-70
2023/04/10 05:56:43;;;;;;;35.53;23.42;;;7.90;99.90;;;;;;4977299;28;20046;-71
2023/04/10 05:59:09;;;;;;;33.22;23.23;;;7.90;99.90;;;;;;4977199;28;20061;-71
2023/04/10 06:01:35;;;;;;;35.20;23.60;;;7.90;99.90;;;;;;4960134;28;20094;-71
2023/04/10 06:04:01;;;;;;;33.58;23.35;;;7.90;99.90;;;;;;4960373;28;20404;-71
2023/04/10 06:06:28;;;;;;;35.28;23.65;;;8.00;99.90;;;;;;4977728;28;20051;-71
2023/04/10 06:08:54;;;;;;;34.92;24.58;;;8.00;99.90;;;;;;4959895;28;20049;-71
2023/04/10 06:11:20;;;;;;;34.15;23.55;;;8.00;99.90;;;;;;4977058;28;20047;-70
2023/04/10 06:13:46;;;;;;;37.92;23.80;;;8.00;99.90;;;;;;4977539;28;20101;-71
2023/04/10 06:16:13;;;;;;;37.13;24.25;;;8.30;99.90;;;;;;4960432;28;20130;-71
2023/04/10 06:18:40;;;;;;;33.10;23.17;;;8.00;99.90;;;;;;4977487;28;20461;-71
2023/04/10 06:21:06;;;;;;;36.38;25.05;;;8.10;99.90;;;;;;4976928;28;20051;-71
2023/04/10 06:23:32;;;;;;;33.65;24.05;;;8.10;99.90;;;;;;4959479;28;20047;-71
2023/04/10 06:25:58;;;;;;;36.58;24.65;;;8.00;99.90;;;;;;4959241;28;20051;-70
2023/04/10 06:28:24;;;;;;;33.42;24.30;;;8.10;99.90;;;;;;4976711;28;20061;-70
2023/04/10 06:30:50;;;;;;;35.35;24.35;;;8.10;99.90;;;;;;4976689;28;20395;-70
2023/04/10 06:33:15;;;;;;;36.03;24.25;;;8.10;99.90;;;;;;4976608;28;20111;-70
2023/04/10 06:35:41;;;;;;;34.92;24.50;;;8.20;99.90;;;;;;4959551;28;20042;-71
2023/04/10 06:38:07;;;;;;;36.30;24.67;;;8.30;99.90;;;;;;4977403;28;20483;-70
2023/04/10 06:40:33;;;;;;;34.30;24.45;;;8.30;99.90;;;;;;4959314;28;20047;-71
2023/04/10 06:42:59;;;;;;;34.85;23.90;;;8.40;99.90;;;;;;4976430;28;20093;-71
2023/04/10 06:45:25;;;;;;;34.38;25.50;;;8.50;99.90;;;;;;4959243;28;20058;-70
2023/04/10 06:47:51;;;;;;;34.58;23.92;;;8.50;99.90;;;;;;4959166;28;20046;-71
2023/04/10 06:50:17;;;;;;;32.13;23.98;;;8.60;99.90;;;;;;4976276;28;20453;-70
2023/04/10 06:52:47;;;;;;;32.30;23.52;;;8.60;99.90;;;;;;4976007;28;20042;-71
2023/04/10 06:55:13;;;;;;;34.33;24.83;;;8.70;99.90;;;;;;4975902;28;20047;-70
2023/04/10 06:57:39;;;;;;;35.10;23.58;;;8.70;99.90;;;;;;4976900;28;20058;-70
2023/04/10 07:00:06;;;;;;;32.83;23.85;;;8.80;99.90;;;;;;4975878;28;20149;-70
2023/04/10 07:02:32;;;;;;;33.58;23.73;;;8.70;99.90;;;;;;4976099;28;20166;-70
2023/04/10 07:04:57;;;;;;;32.33;24.00;;;8.80;99.90;;;;;;4976756;28;20192;-70
2023/04/10 07:07:23;;;;;;;33.13;23.52;;;8.90;99.90;;;;;;4975956;28;20533;-70
2023/04/10 07:09:49;;;;;;;31.73;23.45;;;8.90;99.90;;;;;;4975767;28;20043;-71
2023/04/10 07:12:15;;;;;;;33.38;23.70;;;9.00;99.90;;;;;;4959041;28;20086;-70
2023/04/10 07:14:41;;;;;;;33.92;23.73;;;9.00;99.90;;;;;;4975866;28;20047;-70
2023/04/10 07:17:07;;;;;;;31.13;22.80;;;9.00;99.90;;;;;;4975785;28;20109;-70
2023/04/10 07:19:33;;;;;;;30.92;22.02;;;9.10;99.90;;;;;;4975999;28;20051;-70
2023/04/10 07:21:59;;;;;;;31.45;22.00;;;9.20;99.90;;;;;;4975662;28;20069;-70
2023/04/10 07:24:25;;;;;;;34.70;23.45;;;9.30;99.90;;;;;;4975596;28;20063;-71
2023/04/10 07:26:51;;;;;;;29.33;21.75;;;9.30;99.90;;;;;;4975728;28;20051;-70
2023/04/10 07:29:17;;;;;;;31.05;21.50;;;9.50;99.90;;;;;;4975685;28;20038;-69
2023/04/10 07:31:43;;;;;;;32.72;22.52;;;9.60;99.90;;;;;;4976245;28;20137;-70
2023/04/10 07:34:10;;;;;;;29.42;21.30;;;9.60;99.90;;;;;;4975561;28;20122;-69
2023/04/10 07:36:36;;;;;;;28.80;21.08;;;9.60;99.90;;;;;;4974977;28;20050;-70
2023/04/10 07:39:02;;;;;;;28.73;21.60;;;9.60;99.90;;;;;;4975531;28;20047;-71
2023/04/10 07:41:28;;;;;;;28.75;21.13;;;9.60;99.90;;;;;;4975397;28;20054;-70
2023/04/10 07:43:53;;;;;;;29.58;21.88;;;9.70;99.90;;;;;;4975349;28;20051;-70
2023/04/10 07:46:19;;;;;;;29.70;22.02;;;9.70;99.90;;;;;;4975304;28;20049;-69
2023/04/10 07:48:46;;;;;;;30.92;21.55;;;9.70;99.90;;;;;;4975083;28;20054;-70
2023/04/10 07:51:12;;;;;;;27.95;20.10;;;9.80;99.90;;;;;;4958560;28;20110;-69
2023/04/10 07:53:38;;;;;;;29.50;20.30;;;9.90;99.90;;;;;;4958084;28;20137;-69
2023/04/10 07:56:05;;;;;;;28.15;20.35;;;9.90;99.90;;;;;;4957880;28;20548;-69
2023/04/10 07:58:31;;;;;;;27.20;19.30;;;10.00;99.90;;;;;;4954427;29;20146;-69
2023/04/10 08:00:57;;;;;;;25.05;18.50;;;10.10;99.90;;;;;;4955925;28;20059;-69
2023/04/10 08:03:23;;;;;;;28.38;19.80;;;10.10;99.90;;;;;;4955817;29;20051;-69
2023/04/10 08:05:49;;;;;;;28.08;18.27;;;10.20;99.90;;;;;;4954587;29;20043;-70
2023/04/10 08:08:15;;;;;;;27.23;18.70;;;10.20;99.90;;;;;;4955074;29;20051;-69
2023/04/10 08:10:41;;;;;;;24.77;17.85;;;10.30;99.90;;;;;;4955753;28;20040;-69
2023/04/10 08:13:07;;;;;;;24.85;17.70;;;10.40;99.90;;;;;;4939603;29;20059;-68
2023/04/10 08:15:32;;;;;;;23.83;16.63;;;10.40;99.90;;;;;;4955639;29;20043;-67
2023/04/10 08:17:58;;;;;;;24.17;16.92;;;10.60;99.90;;;;;;4955676;28;20505;-68
2023/04/10 08:20:24;;;;;;;23.48;16.83;;;10.70;99.90;;;;;;4955711;28;20047;-67
2023/04/10 08:22:50;;;;;;;22.27;16.33;;;10.70;99.90;;;;;;4956141;28;20425;-68
2023/04/10 08:25:15;;;;;;;21.88;15.88;;;10.80;99.90;;;;;;4955576;29;20133;-70
2023/04/10 08:27:41;;;;;;;21.08;15.45;;;10.90;99.90;;;;;;4955549;29;20146;-68
2023/04/10 08:30:07;;;;;;;21.27;14.30;;;11.10;99.90;;;;;;4955961;29;20552;-68
2023/04/10 08:32:34;;;;;;;19.50;14.57;;;11.20;99.90;;;;;;4954540;29;20058;-68
2023/04/10 08:35:00;;;;;;;19.50;13.90;;;11.30;99.90;;;;;;4955528;28;20087;-68
2023/04/10 08:37:26;;;;;;;17.23;12.82;;;11.40;99.90;;;;;;4955372;29;20446;-68
2023/04/10 08:39:52;;;;;;;16.60;12.43;;;11.60;99.90;;;;;;4955420;28;20043;-69
2023/04/10 08:42:17;;;;;;;20.55;13.02;;;11.60;99.90;;;;;;4954651;29;20102;-69
2023/04/10 08:44:44;;;;;;;18.38;13.43;;;11.80;99.90;;;;;;4955353;29;20050;-70
2023/04/10 08:47:13;;;;;;;16.40;12.10;;;11.80;99.90;;;;;;4955240;28;20134;-69
2023/04/10 08:49:55;;;;;;;16.70;12.63;;;11.90;99.90;;;;;;4959094;28;20039;-67
2023/04/10 08:52:25;;;;;;;17.85;12.13;;;11.90;99.90;;;;;;4959278;28;20047;-69
2023/04/10 08:54:56;;;;;;;17.13;11.98;;;11.90;99.90;;;;;;4958430;29;20054;-69
2023/04/10 08:57:22;;;;;;;17.10;11.45;;;11.90;99.90;;;;;;4958054;29;20082;-69
2023/04/10 08:59:49;;;;;;;15.55;11.95;;;11.90;99.90;;;;;;4973381;28;20069;-68
2023/04/10 09:02:14;;;;;;;16.13;12.05;;;11.90;99.90;;;;;;4961841;28;20448;-69
2023/04/10 09:04:47;;;;;;;14.88;10.85;;;12.00;99.90;;;;;;4978228;28;20043;-70
2023/04/10 09:07:13;;;;;;;13.38;10.98;;;12.00;99.90;;;;;;4978609;28;20062;-68
2023/04/10 09:09:39;;;;;;;14.98;10.88;;;12.10;99.90;;;;;;4978126;28;20046;-69
2023/04/10 09:12:05;;;;;;;12.65;10.02;;;12.20;99.90;;;;;;4977744;28;20508;-69
2023/04/10 09:14:36;;;;;;;12.95;10.48;;;12.30;99.90;;;;;;4961014;28;20055;-69
2023/04/10 09:17:16;;;;;;;13.95;10.10;;;12.40;99.90;;;;;;4978914;28;20121;-69
2023/04/10 09:19:47;;;;;;;15.20;9.77;;;12.40;99.90;;;;;;4978053;28;20053;-69
2023/04/10 09:22:13;;;;;;;15.18;10.05;;;12.50;99.90;;;;;;4978506;28;20057;-71
2023/04/10 09:24:41;;;;;;;13.88;9.65;;;12.50;99.90;;;;;;4977884;28;20050;-69
2023/04/10 09:27:08;;;;;;;13.52;10.10;;;12.60;99.90;;;;;;4977932;28;20053;-69
2023/04/10 09:29:47;;;;;;;13.30;10.35;;;12.60;99.90;;;;;;4977787;28;20047;-69
2023/04/10 09:32:33;;;;;;;13.35;9.77;;;12.70;99.90;;;;;;4977881;28;20042;-69
2023/04/10 09:34:59;;;;;;;13.65;9.38;;;12.80;99.90;;;;;;4977791;28;20043;-69
2023/04/10 09:37:31;;;;;;;12.52;8.68;;;12.90;99.90;;;;;;4977361;28;20054;-69
2023/04/10 09:39:57;;;;;;;12.35;9.07;;;12.90;99.90;;;;;;4960690;28;20552;-69
2023/04/10 09:42:36;;;;;;;13.60;9.73;;;13.00;99.90;;;;;;4977557;28;20126;-69
2023/04/10 09:45:02;;;;;;;14.32;9.80;;;13.00;99.90;;;;;;4978063;28;20054;-69
2023/04/10 09:47:29;;;;;;;12.88;8.95;;;13.10;99.90;;;;;;4977497;28;20411;-69
2023/04/10 09:49:59;;;;;;;12.05;9.23;;;13.10;99.90;;;;;;4977936;28;20381;-68
2023/04/10 09:52:31;;;;;;;11.23;9.02;;;13.30;99.90;;;;;;4977479;28;20362;-68
2023/04/10 09:55:01;;;;;;;11.60;9.35;;;13.40;99.90;;;;;;4977862;28;20047;-69
2023/04/10 09:57:29;;;;;;;11.88;9.00;;;13.50;99.90;;;;;;4977438;28;20049;-69
2023/04/10 09:59:57;;;;;;;11.88;8.88;;;13.60;99.90;;;;;;4976851;28;20397;-68
2023/04/10 10:02:25;;;;;;;12.77;9.35;;;13.30;99.90;;;;;;4977260;28;20050;-68
2023/04/10 10:04:51;;;;;;;10.73;8.18;;;13.70;99.90;;;;;;4977205;28;20050;-69
2023/04/10 10:07:20;;;;;;;9.32;7.28;;;13.80;99.90;;;;;;4977074;28;20043;-69
2023/04/10 10:09:47;;;;;;;12.10;8.77;;;13.80;99.90;;;;;;4959802;28;20049;-70
2023/04/10 10:12:22;;;;;;;12.40;8.35;;;13.80;99.90;;;;;;4977779;28;20378;-69
2023/04/10 10:15:13;;;;;;;13.40;9.05;;;13.90;99.90;;;;;;4977122;28;20141;-70
2023/04/10 10:17:58;;;;;;;11.38;8.50;;;13.90;99.90;;;;;;4977807;28;20057;-70
2023/04/10 10:20:26;;;;;;;11.80;7.90;;;14.00;99.90;;;;;;4977018;28;20053;-69
2023/04/10 10:22:52;;;;;;;11.57;8.30;;;14.10;99.90;;;;;;4976871;28;20054;-69
2023/04/10 10:25:19;;;;;;;10.48;7.72;;;14.10;99.90;;;;;;4959720;28;20061;-69
2023/04/10 10:27:48;;;;;;;12.93;7.85;;;14.20;99.90;;;;;;4977238;28;20134;-70
2023/04/10 10:30:16;;;;;;;12.80;7.75;;;14.20;99.90;;;;;;4959453;28;20057;-69
2023/04/10 10:32:44;;;;;;;10.50;7.53;;;14.30;99.90;;;;;;4976727;28;20047;-69
2023/04/10 10:35:10;;;;;;;12.40;8.35;;;14.30;99.90;;;;;;4960515;28;20190;-70
2023/04/10 10:37:37;;;;;;;10.77;7.45;;;14.40;99.90;;;;;;4976839;28;20522;-71
2023/04/10 10:40:15;;;;;;;10.75;8.13;;;14.40;98.80;;;;;;4944359;28;20141;-69
2023/04/10 10:42:59;;;;;;;9.73;7.40;;;14.40;98.80;;;;;;4959652;28;20093;-68
2023/04/10 10:45:49;;;;;;;10.88;7.93;;;14.50;98.00;;;;;;4960147;28;20082;-70
2023/04/10 10:48:15;;;;;;;9.75;7.55;;;14.50;98.50;;;;;;4976482;28;20133;-67
2023/04/10 10:50:57;;;;;;;11.35;7.50;;;14.60;99.10;;;;;;4959830;28;20445;-67
2023/04/10 10:53:42;;;;;;;9.57;6.72;;;14.70;99.10;;;;;;4976484;28;20050;-72
2023/04/10 10:56:25;;;;;;;10.45;7.50;;;14.70;98.00;;;;;;4976380;28;20520;-67
2023/04/10 10:58:54;;;;;;;11.07;7.47;;;14.80;97.30;;;;;;4975949;28;20066;-69
2023/04/10 11:01:21;;;;;;;9.55;7.40;;;14.90;97.80;;;;;;4959009;28;20472;-69
2023/04/10 11:03:47;;;;;;;9.82;7.80;;;14.90;97.20;;;;;;4976173;28;20053;-71
2023/04/10 11:06:18;;;;;;;8.45;6.43;;;15.00;97.10;;;;;;4959744;28;20050;-70
2023/04/10 11:08:53;;;;;;;8.50;6.50;;;15.00;95.30;;;;;;4976008;28;20053;-69
2023/04/10 11:11:23;;;;;;;8.48;6.20;;;15.10;94.00;;;;;;4974978;28;20046;-69
2023/04/10 11:13:57;;;;;;;8.65;6.80;;;15.10;94.00;;;;;;4976799;28;20061;-67
2023/04/10 11:16:42;;;;;;;7.90;6.38;;;15.10;92.00;;;;;;4975952;28;20413;-67
2023/04/10 11:19:11;;;;;;;9.60;7.03;;;15.10;92.60;;;;;;4976000;28;20109;-67
2023/04/10 11:22:02;;;;;;;8.13;6.40;;;15.10;94.20;;;;;;4976450;28;20393;-66
2023/04/10 11:24:49;;;;;;;8.88;6.65;;;15.10;92.40;;;;;;4975854;28;20055;-67
2023/04/10 11:27:52;;;;;;;9.55;5.90;;;15.10;93.50;;;;;;4975931;28;20046;-66
2023/04/10 11:30:35;;;;;;;7.78;6.13;;;15.10;93.20;;;;;;4959204;28;20046;-67
2023/04/10 11:33:01;;;;;;;;;;;15.10;91.50;;;;;;4958884;28;20053;-66
2023/04/10 11:35:30;;;;;;;7.88;6.30;;;15.10;90.80;;;;;;4976220;28;19922;-67
2023/04/10 11:38:17;;;;;;;6.68;5.10;;;15.20;93.60;;;;;;4975562;28;20085;-70
2023/04/10 11:40:53;;;;;;;6.50;5.43;;;15.30;93.70;;;;;;4958407;28;20047;-68
2023/04/10 11:43:19;;;;;;;6.60;5.13;;;15.30;93.50;;;;;;4975501;28;20452;-71
2023/04/10 11:45:45;;;;;;;7.43;5.20;;;15.40;93.80;;;;;;4975375;28;20043;-69
2023/04/10 11:48:11;;;;;;;6.57;4.63;;;15.30;93.70;;;;;;4975559;28;20480;-68
2023/04/10 11:50:37;;;;;;;6.13;4.60;;;15.40;92.80;;;;;;4975336;28;20049;-68
2023/04/10 11:53:20;;;;;;;7.20;4.75;;;15.40;93.00;;;;;;4975375;28;20141;-68
2023/04/10 11:55:46;;;;;;;5.22;4.38;;;15.40;91.10;;;;;;4959135;28;20179;-68
2023/04/10 11:58:22;;;;;;;7.97;4.07;;;15.50;93.10;;;;;;4975184;28;20553;-68
2023/04/10 12:00:59;;;;;;;5.72;4.15;;;15.50;92.70;;;;;;4976398;28;20146;-68
2023/04/10 12:03:39;;;;;;;5.18;4.20;;;15.50;93.10;;;;;;4958011;28;20051;-68
2023/04/10 12:06:12;;;;;;;5.82;4.22;;;15.60;92.90;;;;;;4975743;28;20093;-67
2023/04/10 12:08:46;;;;;;;;;;;15.70;93.20;;;;;;4958358;28;20065;-67
2023/04/10 12:11:13;;;;;;;5.63;4.57;;;15.70;93.10;;;;;;4975021;28;20388;-68
2023/04/10 12:13:39;;;;;;;5.20;4.30;;;15.70;91.90;;;;;;4958727;28;20051;-67
2023/04/10 12:16:09;;;;;;;4.75;3.55;;;15.70;92.20;;;;;;4974972;28;20047;-68
2023/04/10 12:18:35;;;;;;;5.95;5.18;;;15.70;91.50;;;;;;4974965;28;20062;-68
2023/04/10 12:21:01;;;;;;;9.32;6.80;;;15.70;93.00;;;;;;4957860;28;20106;-69
2023/04/10 12:23:29;;;;;;;13.55;12.45;;;15.70;92.50;;;;;;4974656;28;20060;-70
2023/04/10 12:26:15;;;;;;;24.55;22.02;;;15.80;92.50;;;;;;4974873;28;20105;-72
2023/04/10 12:29:02;;;;;;;7.88;6.50;;;15.80;87.70;;;;;;4975034;28;20445;-68
2023/04/10 12:31:35;;;;;;;5.40;3.85;;;15.80;90.60;;;;;;4974185;28;20058;-70
2023/04/10 12:34:02;;;;;;;9.77;9.07;;;15.90;90.40;;;;;;4958148;28;20050;-67
2023/04/10 12:36:30;;;;;;;9.50;8.77;;;16.00;90.30;;;;;;4975272;28;20090;-68
2023/04/10 12:39:03;;;;;;;5.65;5.10;;;16.00;90.40;;;;;;4957992;28;20050;-68
2023/04/10 12:41:31;;;;;;;4.70;3.33;;;16.10;90.20;;;;;;4974628;28;20043;-70
2023/04/10 12:44:13;;;;;;;4.68;3.20;;;16.10;90.40;;;;;;4974706;28;20159;-69
2023/04/10 12:46:40;;;;;;;4.68;4.28;;;16.20;89.20;;;;;;4974652;28;20055;-71